Time;durP1;ratioP1;P1;durP2;ratioP2;P2;SDS_P1;SDS_P2;PMS_P1;PMS_P2;Temp;Humidity;BMP_temperature;BMP_pressure;BME280_temperature;BME280_humidity;BME280_pressure;Samples;Min_cycle;Max_cycle;Signal;HPM_P1;HPM_P2
2021/08/10 00:01:52;;;;;;;;;4.00;4.00;;;;;22.86;51.14;101127.22;5046096;28;48318;-54
2021/08/10 00:04:18;;;;;;;;;4.00;4.00;;;;;22.86;51.21;101118.25;5058414;28;45318;-56
2021/08/10 00:06:43;;;;;;;;;5.00;5.00;;;;;22.84;51.06;101131.00;5055823;28;45350;-57
2021/08/10 00:09:09;;;;;;;;;4.00;4.00;;;;;22.84;51.08;101134.59;5048062;28;45536;-57
2021/08/10 00:11:34;;;;;;;;;4.67;4.67;;;;;22.84;51.71;101137.28;5059331;28;48615;-55
2021/08/10 00:14:00;;;;;;;;;5.00;4.33;;;;;22.84;51.52;101128.31;5052991;28;45225;-56
2021/08/10 00:16:27;;;;;;;;;5.67;5.00;;;;;22.84;51.34;101123.75;5054402;28;45388;-56
2021/08/10 00:18:52;;;;;;;;;5.00;5.00;;;;;22.83;51.06;101124.72;5057219;28;45396;-52
2021/08/10 00:21:18;;;;;;;;;6.00;4.00;;;;;22.82;51.42;101128.38;5058758;28;48404;-57
2021/08/10 00:23:43;;;;;;;;;5.00;5.00;;;;;22.81;51.22;101120.38;5057710;28;45813;-55
2021/08/10 00:26:09;;;;;;;;;3.67;3.67;;;;;22.79;51.24;101115.06;5059504;28;45695;-55
2021/08/10 00:28:34;;;;;;;;;6.00;6.00;;;;;22.79;51.52;101125.00;5058982;28;45575;-54
2021/08/10 00:31:00;;;;;;;;;5.00;4.00;;;;;22.77;51.52;101118.84;5056252;28;48240;-54
2021/08/10 00:33:25;;;;;;;;;3.00;3.00;;;;;22.75;51.48;101120.78;5058395;28;45855;-55
2021/08/10 00:35:51;;;;;;;;;5.00;4.00;;;;;22.74;51.44;101116.31;5059176;28;45507;-56
2021/08/10 00:38:16;;;;;;;;;6.33;5.67;;;;;22.74;51.92;101125.31;5053583;28;45591;-54
2021/08/10 00:40:42;;;;;;;;;6.33;5.67;;;;;22.73;51.59;101117.28;5058172;28;48000;-55
2021/08/10 00:43:47;;;;;;;;;4.67;4.67;;;;;22.73;51.85;101109.16;5058805;28;45322;-53
2021/08/10 00:46:13;;;;;;;;;5.00;5.00;;;;;22.72;51.67;101120.97;5051671;28;45228;-54
2021/08/10 00:48:39;;;;;;;;;8.00;6.33;;;;;22.70;52.02;101117.50;5045292;28;45517;-55
2021/08/10 00:51:08;;;;;;;;;5.33;4.33;;;;;22.70;51.79;101112.09;5040900;28;46228;-56
2021/08/10 00:53:34;;;;;;;;;7.00;6.00;;;;;22.69;51.58;101119.34;5056897;28;45341;-55
2021/08/10 00:56:00;;;;;;;;;4.33;4.33;;;;;22.69;51.56;101123.88;5057377;28;45365;-55
2021/08/10 00:58:26;;;;;;;;;5.00;4.00;;;;;22.69;51.89;101127.44;5058794;28;45530;-55
2021/08/10 01:00:51;;;;;;;;;6.33;6.33;;;;;22.68;51.64;101124.84;5087816;27;48319;-54
2021/08/10 01:03:17;;;;;;;;;4.00;4.00;;;;;22.67;51.98;101132.09;5057741;28;45277;-55
2021/08/10 01:05:48;;;;;;;;;4.33;4.33;;;;;22.67;52.29;101137.50;5046157;28;45297;-55
2021/08/10 01:08:34;;;;;;;;;4.67;4.67;;;;;22.66;52.61;101135.78;5050912;28;45499;-55
2021/08/10 01:11:18;;;;;;;;;6.00;4.33;;;;;22.65;52.49;101144.00;5052492;28;47349;-55
2021/08/10 01:14:17;;;;;;;;;5.00;5.00;;;;;22.66;52.99;101153.84;5066672;28;45400;-54
2021/08/10 01:17:15;;;;;;;;;7.33;5.67;;;;;22.64;52.87;101155.78;5056673;28;45295;-54
2021/08/10 01:19:54;;;;;;;;;6.33;4.33;;;;;22.61;52.76;101149.63;5058483;28;45344;-54
2021/08/10 01:22:21;;;;;;;;;7.00;5.00;;;;;22.61;53.39;101162.25;5053008;28;47620;-55
2021/08/10 01:25:08;;;;;;;;;4.00;4.00;;;;;22.60;54.05;101147.84;5061188;28;45903;-55
2021/08/10 01:27:52;;;;;;;;;4.33;4.33;;;;;22.59;53.87;101156.94;5058276;28;45441;-55
2021/08/10 01:30:23;;;;;;;;;5.67;5.33;;;;;22.58;54.14;101157.03;5057144;28;45426;-55
2021/08/10 01:32:51;;;;;;;;;4.00;3.00;;;;;22.55;54.65;101150.00;5071149;28;48412;-56
2021/08/10 01:35:19;;;;;;;;;6.00;6.00;;;;;22.54;54.77;101141.97;5060526;28;45413;-56
2021/08/10 01:37:50;;;;;;;;;4.00;4.00;;;;;22.50;54.79;101149.44;5061746;28;45367;-55
2021/08/10 01:40:17;;;;;;;;;5.33;4.33;;;;;22.47;54.48;101143.34;5071701;27;45473;-56
2021/08/10 01:42:43;;;;;;;;;4.00;4.00;;;;;22.42;55.53;101140.06;5046523;28;48228;-54
2021/08/10 01:45:11;;;;;;;;;3.00;3.00;;;;;22.38;55.03;101138.53;5060005;28;45382;-55
2021/08/10 01:47:39;;;;;;;;;4.33;4.33;;;;;22.35;55.56;101142.28;5094546;27;45418;-54
2021/08/10 01:50:07;;;;;;;;;8.00;5.00;;;;;22.33;55.89;101136.09;5060719;28;45606;-55
2021/08/10 01:52:34;;;;;;;;;5.67;5.67;;;;;22.31;56.15;101138.06;5061519;27;45334;-54
2021/08/10 01:55:00;;;;;;;;;3.67;3.67;;;;;22.28;55.88;101136.41;5061280;28;45309;-53
2021/08/10 01:57:27;;;;;;;;;4.67;4.67;;;;;22.27;56.48;101142.78;5058315;28;45285;-55
2021/08/10 01:59:55;;;;;;;;;4.67;4.67;;;;;22.26;56.35;101145.59;5059464;28;45456;-55
2021/08/10 02:02:21;;;;;;;;;6.00;5.00;;;;;22.25;56.71;101143.88;5048433;27;48027;-55
2021/08/10 02:04:49;;;;;;;;;3.67;3.67;;;;;22.22;56.95;101161.13;5061428;28;45627;-55
2021/08/10 02:07:16;;;;;;;;;5.33;5.33;;;;;22.19;56.73;101157.75;5061640;28;45308;-55
2021/08/10 02:09:42;;;;;;;;;4.67;4.00;;;;;22.18;57.20;101165.00;5051463;28;45902;-56
2021/08/10 02:12:09;;;;;;;;;5.00;5.00;;;;;22.14;57.61;101165.28;5051149;28;45965;-56
2021/08/10 02:14:36;;;;;;;;;5.00;5.00;;;;;22.09;56.97;101173.66;5055773;28;46059;-55
2021/08/10 02:17:06;;;;;;;;;6.00;6.00;;;;;22.04;57.76;101164.97;5047896;28;45499;-56
2021/08/10 02:19:33;;;;;;;;;3.67;3.67;;;;;22.02;57.79;101164.19;5054315;28;45671;-54
2021/08/10 02:22:06;;;;;;;;;5.33;5.33;;;;;21.99;57.67;101154.44;5060927;28;48314;-55
2021/08/10 02:24:52;;;;;;;;;3.67;3.67;;;;;21.98;58.33;101149.16;5060658;28;45912;-54
2021/08/10 02:27:32;;;;;;;;;7.00;5.67;;;;;21.96;58.11;101146.50;5060613;28;45550;-55
2021/08/10 02:30:01;;;;;;;;;5.33;4.33;;;;;21.96;58.48;101153.75;5056060;27;45392;-55
2021/08/10 02:32:30;;;;;;;;;3.33;3.33;;;;;21.94;58.74;101145.75;5052684;28;48173;-55
2021/08/10 02:34:57;;;;;;;;;6.00;6.00;;;;;21.93;58.24;101146.69;5054159;28;45298;-54
2021/08/10 02:37:23;;;;;;;;;6.00;4.33;;;;;21.91;59.51;101135.13;5060956;28;45441;-55
2021/08/10 02:39:51;;;;;;;;;4.67;4.67;;;;;21.91;59.33;101136.97;5090353;27;45602;-55
2021/08/10 02:42:18;;;;;;;;;5.67;5.67;;;;;21.91;59.86;101143.22;5058595;28;47262;-55
2021/08/10 02:44:46;;;;;;;;;5.33;5.33;;;;;21.90;59.17;101140.63;5060219;28;45374;-55
2021/08/10 02:47:13;;;;;;;;;6.00;5.33;;;;;21.90;59.58;101149.59;5055696;28;45519;-54
2021/08/10 02:49:40;;;;;;;;;6.00;4.67;;;;;21.90;59.77;101151.44;5059621;28;45345;-54
2021/08/10 02:52:06;;;;;;;;;7.00;6.00;;;;;21.89;59.95;101149.69;5060510;27;47358;-55
2021/08/10 02:54:32;;;;;;;;;5.00;4.00;;;;;21.88;59.99;101147.97;5060326;28;45373;-53
2021/08/10 02:57:05;;;;;;;;;5.67;4.67;;;;;21.87;59.54;101141.69;5060442;28;45458;-55
2021/08/10 02:59:37;;;;;;;;;5.67;5.00;;;;;21.86;59.64;101145.38;5059506;28;45386;-55
2021/08/10 03:02:18;;;;;;;;;4.00;4.00;;;;;21.84;59.48;101141.88;5060296;28;47435;-55
2021/08/10 03:05:02;;;;;;;;;5.00;5.00;;;;;21.82;59.39;101134.81;5054093;28;45925;-54
2021/08/10 03:07:30;;;;;;;;;5.00;4.00;;;;;21.79;59.50;101135.03;5057476;28;45410;-54
2021/08/10 03:10:00;;;;;;;;;3.33;3.33;;;;;21.76;60.02;101127.97;5062242;27;45376;-55
2021/08/10 03:12:28;;;;;;;;;4.33;4.33;;;;;21.77;59.53;101128.84;5049917;28;48298;-54
2021/08/10 03:14:57;;;;;;;;;6.00;4.67;;;;;21.75;60.31;101137.06;5047642;28;45985;-55
2021/08/10 03:17:26;;;;;;;;;7.00;5.67;;;;;21.73;60.06;101133.59;5052256;28;45314;-55
2021/08/10 03:19:54;;;;;;;;;3.00;3.00;;;;;21.74;60.43;101138.00;5059416;28;45801;-55
2021/08/10 03:22:20;;;;;;;;;4.33;4.33;;;;;21.72;59.98;101143.53;5057619;28;47262;-53
2021/08/10 03:24:48;;;;;;;;;4.33;4.00;;;;;21.73;59.52;101147.94;5052247;28;45481;-56
2021/08/10 03:27:14;;;;;;;;;4.00;4.00;;;;;21.72;60.38;101148.03;5060222;28;45325;-55
2021/08/10 03:29:40;;;;;;;;;4.67;4.67;;;;;21.71;60.38;101140.88;5060166;28;45432;-51
2021/08/10 03:32:07;;;;;;;;;9.00;5.67;;;;;21.70;60.21;101137.31;5049645;28;47208;-54
2021/08/10 03:34:33;;;;;;;;;4.00;4.00;;;;;21.69;60.51;101129.31;5060105;28;45457;-52
2021/08/10 03:37:00;;;;;;;;;4.33;4.33;;;;;21.70;60.27;101136.44;5060002;28;45568;-55
2021/08/10 03:39:27;;;;;;;;;13.50;11.50;;;;;21.70;60.35;101131.91;5058293;28;45391;-60
2021/08/10 03:41:53;;;;;;;;;9.00;9.00;;;;;21.71;60.38;101121.97;5053902;28;47337;-60
2021/08/10 03:44:19;;;;;;;;;7.67;5.67;;;;;21.71;60.35;101125.53;5059730;28;45322;-60
2021/08/10 03:46:45;;;;;;;;;6.00;6.00;;;;;21.71;59.58;101128.25;5059125;28;45527;-60
2021/08/10 03:49:15;;;;;;;;;7.00;7.00;;;;;21.70;59.82;101129.22;5060069;28;45277;-61
2021/08/10 03:51:41;;;;;;;;;6.33;6.00;;;;;21.67;59.55;101124.00;5058087;28;48489;-60
2021/08/10 03:54:06;;;;;;;;;7.33;6.00;;;;;21.66;59.95;101124.09;5059481;28;45635;-59
2021/08/10 03:56:33;;;;;;;;;6.00;6.00;;;;;21.64;59.91;101129.59;5057709;28;45308;-59
2021/08/10 03:58:59;;;;;;;;;5.00;5.00;;;;;21.61;59.86;101132.50;5058480;28;45583;-60
2021/08/10 04:01:26;;;;;;;;;7.00;5.67;;;;;21.59;59.95;101131.69;5057426;28;46795;-59
2021/08/10 04:03:57;;;;;;;;;6.00;5.00;;;;;21.59;60.10;101134.41;5059597;28;45334;-60
2021/08/10 04:06:25;;;;;;;;;8.67;7.00;;;;;21.57;60.88;101136.31;5057076;28;45552;-60
2021/08/10 04:08:50;;;;;;;;;6.33;6.00;;;;;21.56;60.13;101133.72;5059268;28;45599;-60
2021/08/10 04:11:18;;;;;;;;;6.67;6.67;;;;;21.55;60.78;101130.16;5088056;27;46065;-60
2021/08/10 04:13:45;;;;;;;;;8.67;7.00;;;;;21.53;60.44;101125.81;5064092;28;45488;-60
2021/08/10 04:16:15;;;;;;;;;5.33;5.33;;;;;21.50;61.17;101134.97;5054518;28;46251;-61
2021/08/10 04:18:41;;;;;;;;;5.67;5.67;;;;;21.47;61.05;101132.47;5052142;28;45511;-60
2021/08/10 04:21:07;;;;;;;;;6.00;6.00;;;;;21.47;60.96;101142.38;5059195;28;46343;-60
2021/08/10 04:23:32;;;;;;;;;5.67;4.33;;;;;21.45;61.03;101142.47;5059276;28;45951;-61
2021/08/10 04:25:58;;;;;;;;;6.00;6.00;;;;;21.44;60.98;101138.91;5058998;28;45373;-60
2021/08/10 04:28:23;;;;;;;;;5.00;4.33;;;;;21.43;60.99;101139.88;5056592;28;45627;-59
2021/08/10 04:30:49;;;;;;;;;6.00;6.00;;;;;21.44;61.60;101143.44;5055209;28;47998;-60
2021/08/10 04:33:15;;;;;;;;;5.00;5.00;;;;;21.43;61.80;101152.50;5058803;28;45400;-60
2021/08/10 04:35:41;;;;;;;;;6.33;6.00;;;;;21.42;61.00;101146.22;5058596;28;45415;-60
2021/08/10 04:38:06;;;;;;;;;4.33;4.33;;;;;21.42;61.52;101153.47;5059323;28;45668;-60
2021/08/10 04:40:32;;;;;;;;;7.00;7.00;;;;;21.41;61.10;101149.03;5063817;28;46850;-60
2021/08/10 04:42:59;;;;;;;;;8.33;8.33;;;;;21.41;61.85;101144.50;5046901;28;45464;-60
2021/08/10 04:45:25;;;;;;;;;7.00;7.00;;;;;21.40;62.12;101140.06;5056481;28;45708;-60
2021/08/10 04:47:52;;;;;;;;;6.00;6.00;;;;;21.37;61.53;101145.66;5070469;28;45247;-60
2021/08/10 04:50:19;;;;;;;;;5.67;5.33;;;;;21.37;61.43;101144.78;5071324;27;47053;-60
2021/08/10 04:52:44;;;;;;;;;5.67;5.33;;;;;21.37;61.85;101144.78;5058199;28;45294;-60
2021/08/10 04:55:10;;;;;;;;;9.00;8.67;;;;;21.36;61.83;101143.91;5058826;28;45613;-60
2021/08/10 04:57:36;;;;;;;;;6.33;6.33;;;;;21.37;62.33;101142.94;5090982;27;45530;-60
2021/08/10 05:00:03;;;;;;;;;6.00;5.00;;;;;21.40;62.19;101152.69;5068422;28;47091;-59
2021/08/10 05:02:28;;;;;;;;;6.00;6.00;;;;;21.40;61.92;101147.28;5067448;27;45483;-59
2021/08/10 05:04:54;;;;;;;;;6.00;6.00;;;;;21.41;62.55;101155.28;5057378;28;45611;-62
2021/08/10 05:07:19;;;;;;;;;7.00;7.00;;;;;21.43;61.91;101153.38;5056571;28;45292;-59
2021/08/10 05:09:45;;;;;;;;;7.67;6.00;;;;;21.47;61.98;101158.56;5057757;28;45339;-63
2021/08/10 05:12:10;;;;;;;;;5.00;5.00;;;;;21.47;62.12;101159.47;5053717;28;45744;-60
2021/08/10 05:14:36;;;;;;;;;9.00;6.33;;;;;21.49;62.20;101153.97;5051583;28;45417;-60
2021/08/10 05:17:02;;;;;;;;;7.00;7.00;;;;;21.52;62.35;101161.88;5054582;28;45613;-60
2021/08/10 05:19:27;;;;;;;;;7.00;6.67;;;;;21.53;61.88;101161.78;5051538;28;48104;-60
2021/08/10 05:21:53;;;;;;;;;5.33;5.33;;;;;21.55;62.04;101159.00;5057645;28;45787;-60
2021/08/10 05:24:18;;;;;;;;;6.67;6.67;;;;;21.56;62.35;101164.28;5049697;28;45368;-61
2021/08/10 05:26:43;;;;;;;;;8.67;8.67;;;;;21.53;62.35;101161.78;5057918;28;45643;-60
2021/08/10 05:29:09;;;;;;;;;8.67;8.00;;;;;21.53;62.40;101158.22;5057941;27;48217;-60
2021/08/10 05:31:34;;;;;;;;;9.00;9.00;;;;;21.55;62.10;101156.28;5056061;28;45319;-60
2021/08/10 05:34:00;;;;;;;;;8.00;7.00;;;;;21.56;62.13;101158.91;5058427;28;45354;-60
2021/08/10 05:36:25;;;;;;;;;7.33;7.33;;;;;21.58;62.38;101159.66;5055328;28;45683;-60
2021/08/10 05:38:53;;;;;;;;;8.67;7.00;;;;;21.60;62.58;101167.72;5049656;28;47717;-61
2021/08/10 05:41:22;;;;;;;;;8.00;7.00;;;;;21.62;62.47;101169.34;5057443;28;45250;-61
2021/08/10 05:43:49;;;;;;;;;6.33;5.00;;;;;21.63;62.39;101164.81;5050477;28;45648;-60
2021/08/10 05:46:15;;;;;;;;;9.00;7.67;;;;;21.64;62.60;101166.53;5073851;28;45529;-61
2021/08/10 05:48:40;;;;;;;;;5.33;5.33;;;;;21.64;62.44;101169.25;5054947;28;47098;-60
2021/08/10 05:51:06;;;;;;;;;9.33;8.67;;;;;21.65;62.28;101160.19;5057946;28;45755;-61
2021/08/10 05:53:33;;;;;;;;;8.00;6.67;;;;;21.66;61.93;101173.59;5055333;28;45369;-60
2021/08/10 05:55:59;;;;;;;;;7.00;7.00;;;;;21.67;61.67;101169.91;5047784;28;45572;-61
2021/08/10 05:58:25;;;;;;;;;6.33;5.67;;;;;21.68;61.52;101168.97;5043199;28;45320;-60
2021/08/10 06:00:50;;;;;;;;;5.33;5.00;;;;;21.69;61.82;101162.59;5050563;28;45472;-61
2021/08/10 06:03:16;;;;;;;;;10.00;7.33;;;;;21.71;61.70;101168.75;5055989;28;45231;-60
2021/08/10 06:05:41;;;;;;;;;7.00;7.00;;;;;21.72;61.90;101170.53;5060560;28;45564;-61
2021/08/10 06:08:07;;;;;;;;;7.33;6.33;;;;;21.71;61.57;101166.06;5057718;28;46099;-60
2021/08/10 06:10:32;;;;;;;;;5.00;5.00;;;;;21.72;61.61;101169.63;5054428;28;45352;-60
2021/08/10 06:12:58;;;;;;;;;7.00;5.00;;;;;21.70;62.20;101168.88;5049872;28;45635;-60
2021/08/10 06:15:23;;;;;;;;;4.00;4.00;;;;;21.71;61.75;101170.59;5054075;28;45343;-60
2021/08/10 06:17:49;;;;;;;;;4.00;4.00;;;;;21.71;61.88;101166.06;5053745;28;47629;-60
2021/08/10 06:20:15;;;;;;;;;6.00;6.00;;;;;21.74;62.05;101167.72;5093120;27;45357;-60
2021/08/10 06:22:41;;;;;;;;;6.00;6.00;;;;;21.75;61.22;101169.47;5059329;27;45472;-60
2021/08/10 06:25:06;;;;;;;;;7.50;7.50;;;;;21.77;61.45;101170.25;5093913;27;45451;-60
2021/08/10 06:27:32;;;;;;;;;6.33;6.33;;;;;21.80;61.56;101174.56;5058164;28;45536;-60
2021/08/10 06:29:57;;;;;;;;;6.00;6.00;;;;;21.80;60.87;101170.03;5084854;27;45660;-60
2021/08/10 06:32:23;;;;;;;;;8.00;7.00;;;;;21.80;61.23;101171.88;5059795;28;45464;-61
2021/08/10 06:34:48;;;;;;;;;3.67;3.67;;;;;21.78;60.67;101174.69;5060937;28;45520;-60
2021/08/10 06:37:14;;;;;;;;;4.00;4.00;;;;;21.79;60.68;101172.84;5060468;28;45302;-60
2021/08/10 06:39:39;;;;;;;;;4.67;4.67;;;;;21.82;60.66;101172.66;5052954;28;45392;-61
2021/08/10 06:42:05;;;;;;;;;6.00;6.00;;;;;21.84;61.14;101168.88;5059820;28;45756;-60
2021/08/10 06:44:30;;;;;;;;;6.00;4.33;;;;;21.87;60.47;101178.66;5061682;27;45530;-61
2021/08/10 06:46:56;;;;;;;;;5.33;4.00;;;;;21.86;60.30;101177.78;5050735;28;47343;-60
2021/08/10 06:49:21;;;;;;;;;7.00;7.00;;;;;21.89;60.86;101169.50;5050319;28;45294;-60
2021/08/10 06:51:47;;;;;;;;;5.00;5.00;;;;;21.94;60.39;101169.19;5060783;28;45480;-61
2021/08/10 06:54:12;;;;;;;;;8.33;6.67;;;;;21.96;60.89;101167.25;5060440;28;45416;-60
2021/08/10 06:56:38;;;;;;;;;4.00;4.00;;;;;21.99;60.42;101172.50;5051592;28;47040;-60
2021/08/10 06:59:03;;;;;;;;;6.33;6.33;;;;;22.02;60.30;101173.16;5075681;27;45817;-60
2021/08/10 07:01:29;;;;;;;;;6.00;6.00;;;;;22.03;60.62;101177.59;5058339;28;45496;-59
2021/08/10 07:03:54;;;;;;;;;8.67;7.33;;;;;22.07;60.52;101161.22;5063858;27;45467;-61
2021/08/10 07:06:22;;;;;;;;;7.00;7.00;;;;;22.08;60.39;101168.38;5064688;28;47681;-62
2021/08/10 07:08:52;;;;;;;;;5.67;5.33;;;;;22.08;60.70;101171.06;5063784;28;45376;-62
2021/08/10 07:11:17;;;;;;;;;4.00;4.00;;;;;22.11;60.13;101169.06;5067375;28;45483;-62
2021/08/10 07:13:43;;;;;;;;;6.00;6.00;;;;;22.14;60.12;101179.69;5055516;28;45788;-61
2021/08/10 07:16:09;;;;;;;;;8.00;7.00;;;;;22.17;60.45;101171.38;5056367;28;46069;-61
2021/08/10 07:18:37;;;;;;;;;6.00;6.00;;;;;22.24;59.97;101178.16;5056524;27;45674;-61
2021/08/10 07:21:03;;;;;;;;;6.00;6.00;;;;;22.29;59.86;101176.00;5056136;28;45453;-62
2021/08/10 07:23:28;;;;;;;;;6.00;5.33;;;;;22.33;60.03;101173.97;5059617;28;45522;-61
2021/08/10 07:25:54;;;;;;;;;6.00;6.00;;;;;22.38;59.51;101179.09;5071056;28;46944;-61
2021/08/10 07:28:19;;;;;;;;;6.33;6.33;;;;;22.42;59.74;101177.94;5055876;28;45621;-61
2021/08/10 07:30:45;;;;;;;;;6.33;6.33;;;;;22.46;59.68;101188.44;5050911;28;46039;-61
2021/08/10 07:33:10;;;;;;;;;10.33;8.00;;;;;22.48;58.86;101186.50;5056378;28;45524;-61
2021/08/10 07:35:35;;;;;;;;;6.33;6.33;;;;;22.52;58.97;101195.31;5072519;28;47016;-62
2021/08/10 07:38:01;;;;;;;;;5.00;5.00;;;;;22.56;59.49;101192.31;5054446;28;45341;-61
2021/08/10 07:40:26;;;;;;;;;6.67;6.67;;;;;22.61;59.26;101192.91;5049732;28;45404;-61
2021/08/10 07:42:52;;;;;;;;;7.33;7.33;;;;;22.64;58.97;101185.53;5059284;28;45430;-61
2021/08/10 07:45:17;;;;;;;;;5.33;5.33;;;;;22.67;58.87;101191.63;5059098;28;47256;-61
2021/08/10 07:47:43;;;;;;;;;7.00;6.33;;;;;22.71;58.06;101189.56;5054074;28;45274;-59
2021/08/10 07:50:09;;;;;;;;;6.00;6.00;;;;;22.72;58.45;101186.75;5059989;28;45459;-60
2021/08/10 07:52:36;;;;;;;;;10.00;8.67;;;;;22.77;58.49;101183.78;5057427;28;45666;-60
2021/08/10 07:55:02;;;;;;;;;7.00;6.00;;;;;22.80;58.62;101188.97;5057516;28;45435;-60
2021/08/10 07:57:28;;;;;;;;;6.33;6.00;;;;;22.85;58.52;101189.56;5056480;28;45302;-60
2021/08/10 07:59:53;;;;;;;;;7.33;7.33;;;;;22.89;58.26;101188.44;5092084;27;45295;-60
2021/08/10 08:02:19;;;;;;;;;7.33;6.00;;;;;22.92;58.17;101190.91;5049874;28;45460;-60
2021/08/10 08:04:44;;;;;;;;;5.33;5.33;;;;;22.97;58.27;101193.31;5082363;27;48095;-60
2021/08/10 08:07:09;;;;;;;;;6.33;6.33;;;;;23.02;57.98;101193.91;5052145;28;45463;-60
2021/08/10 08:09:35;;;;;;;;;7.33;7.33;;;;;23.05;57.98;101201.81;5056561;28;46162;-60
2021/08/10 08:12:00;;;;;;;;;7.67;7.67;;;;;23.07;58.17;101200.72;5056863;28;45543;-60
2021/08/10 08:14:26;;;;;;;;;8.00;7.00;;;;;23.12;58.18;101197.72;5091391;27;48066;-60
2021/08/10 08:16:51;;;;;;;;;7.00;7.00;;;;;23.17;57.88;101198.28;5058091;28;45581;-61
2021/08/10 08:19:17;;;;;;;;;5.00;5.00;;;;;23.23;57.48;101200.56;5057554;28;45461;-60
2021/08/10 08:21:43;;;;;;;;;6.00;5.00;;;;;23.27;57.36;101201.25;5058154;28;45769;-60
2021/08/10 08:24:08;;;;;;;;;6.00;6.00;;;;;23.31;57.07;101194.66;5056347;28;45967;-59
2021/08/10 08:26:34;;;;;;;;;5.00;5.00;;;;;23.35;56.90;101194.34;5054898;28;45446;-59
2021/08/10 08:29:00;;;;;;;;;7.33;7.33;;;;;23.39;57.06;101197.72;5058028;28;45250;-59
2021/08/10 08:31:26;;;;;;;;;5.67;5.67;;;;;23.42;56.62;101194.81;5059648;28;45324;-59
2021/08/10 08:33:52;;;;;;;;;6.00;6.00;;;;;23.44;56.72;101196.44;5059077;28;46833;-60
2021/08/10 08:36:17;;;;;;;;;6.67;6.67;;;;;23.50;56.52;101195.13;5059814;28;45338;-60
2021/08/10 08:38:43;;;;;;;;;5.67;5.67;;;;;23.54;56.36;101199.38;5058257;28;45590;-59
2021/08/10 08:41:10;;;;;;;;;6.33;5.67;;;;;23.55;56.25;101198.41;5050467;28;45346;-60
2021/08/10 08:43:39;;;;;;;;;6.00;6.00;;;;;23.58;56.27;101200.94;5057319;28;47646;-60
2021/08/10 08:46:05;;;;;;;;;5.33;5.33;;;;;23.61;56.05;101192.59;5057065;28;45554;-59
2021/08/10 08:48:32;;;;;;;;;6.00;5.33;;;;;23.63;55.91;101187.97;5056612;28;45475;-60
2021/08/10 08:51:00;;;;;;;;;6.33;6.33;;;;;23.67;55.96;101183.19;5058645;28;45510;-60
2021/08/10 08:53:26;;;;;;;;;5.33;5.33;;;;;23.72;55.84;101181.88;5055668;28;46436;-60
2021/08/10 08:55:52;;;;;;;;;5.33;5.33;;;;;23.77;55.72;101181.59;5060245;28;45676;-60
2021/08/10 08:58:17;;;;;;;;;5.00;5.00;;;;;23.82;55.82;101182.13;5060222;28;45399;-60
2021/08/10 09:00:43;;;;;;;;;5.00;5.00;;;;;23.87;55.42;101189.91;5056465;27;45513;-61
2021/08/10 09:03:09;;;;;;;;;5.00;5.00;;;;;23.86;55.41;101186.34;5055124;28;47115;-60
2021/08/10 09:05:35;;;;;;;;;6.00;6.00;;;;;23.88;55.38;101180.81;5055710;28;45340;-60
2021/08/10 09:08:26;;;;;;;;;5.00;5.00;;;;;23.92;55.53;101180.50;5058443;28;45462;-60
2021/08/10 09:10:54;;;;;;;;;5.67;4.67;;;;;23.94;55.46;101178.56;5078727;27;45416;-60
2021/08/10 09:13:19;;;;;;;;;3.67;3.67;;;;;23.98;55.26;101187.34;5054545;28;48145;-61
2021/08/10 09:15:46;;;;;;;;;8.33;6.67;;;;;24.02;55.30;101183.44;5056596;28;45457;-61
2021/08/10 09:18:15;;;;;;;;;4.67;4.67;;;;;24.07;55.08;101187.56;5055489;28;45377;-60
2021/08/10 09:20:57;;;;;;;;;7.67;6.00;;;;;24.10;54.83;101186.47;5080613;27;45427;-60
2021/08/10 09:23:56;;;;;;;;;7.00;7.00;;;;;24.14;55.00;101197.94;5055549;28;48148;-60
2021/08/10 09:26:31;;;;;;;;;6.00;6.00;;;;;24.12;54.45;101189.94;5016619;28;45429;-60
2021/08/10 09:28:59;;;;;;;;;4.00;4.00;;;;;24.08;54.32;101199.28;5056282;28;45442;-60
2021/08/10 09:31:39;;;;;;;;;4.33;4.33;;;;;24.02;54.33;101195.16;5056772;28;45481;-60
2021/08/10 09:34:30;;;;;;;;;4.67;4.67;;;;;23.96;54.07;101187.44;5056457;28;47490;-60
2021/08/10 09:36:56;;;;;;;;;6.00;6.00;;;;;23.88;54.26;101187.09;5069034;27;45394;-60
2021/08/10 09:39:32;;;;;;;;;6.00;6.00;;;;;23.85;54.64;101194.59;5053452;28;45642;-60
2021/08/10 09:42:04;;;;;;;;;5.00;5.00;;;;;23.87;54.55;101185.38;5056523;28;46144;-60
2021/08/10 09:44:29;;;;;;;;;7.00;5.00;;;;;23.85;54.41;101176.47;5056831;28;47433;-61
2021/08/10 09:46:55;;;;;;;;;5.67;5.00;;;;;23.85;54.50;101186.47;5055695;28;46300;-61
2021/08/10 09:49:21;;;;;;;;;5.33;5.00;;;;;23.88;53.85;101180.81;5056487;28;45369;-61
2021/08/10 09:51:51;;;;;;;;;4.00;4.00;;;;;23.92;54.31;101179.63;5054306;28;45709;-60
2021/08/10 09:54:18;;;;;;;;;5.33;5.33;;;;;23.94;54.36;101177.69;5056531;27;48066;-60
2021/08/10 09:56:52;;;;;;;;;5.67;5.67;;;;;23.93;53.86;101173.25;5060709;27;45935;-60
2021/08/10 09:59:25;;;;;;;;;4.00;4.00;;;;;23.96;53.67;101170.31;5059399;28;45548;-61
2021/08/10 10:01:55;;;;;;;;;4.00;4.00;;;;;23.95;54.37;101172.16;5059241;28;45446;-61
2021/08/10 10:04:27;;;;;;;;;7.33;7.00;;;;;23.96;54.21;101171.19;5059676;27;48558;-60
2021/08/10 10:06:54;;;;;;;;;5.00;5.00;;;;;23.97;54.03;101169.31;5059529;28;46238;-60
2021/08/10 10:09:22;;;;;;;;;5.67;5.33;;;;;24.00;53.88;101174.53;5057633;28;45654;-59
2021/08/10 10:11:50;;;;;;;;;3.00;3.00;;;;;24.03;53.86;101175.19;5060315;28;45294;-60
2021/08/10 10:14:15;;;;;;;;;4.00;4.00;;;;;24.12;53.51;101173.66;5061531;28;47355;-61
2021/08/10 10:16:48;;;;;;;;;6.33;5.00;;;;;24.20;53.76;101171.28;5042197;28;45418;-60
2021/08/10 10:19:16;;;;;;;;;5.00;4.00;;;;;24.32;53.63;101183.13;5060070;28;45519;-60
2021/08/10 10:21:50;;;;;;;;;3.00;3.00;;;;;24.40;52.38;101186.16;5057372;28;45374;-61
2021/08/10 10:24:17;;;;;;;;;3.67;3.67;;;;;24.43;52.16;101176.94;5059544;28;48442;-60
2021/08/10 10:26:46;;;;;;;;;4.00;2.00;;;;;24.42;52.12;101177.91;5057817;28;46014;-60
2021/08/10 10:29:14;;;;;;;;;4.00;3.33;;;;;24.40;51.67;101171.75;5057217;28;45454;-60
2021/08/10 10:31:41;;;;;;;;;3.67;3.67;;;;;24.38;52.19;101170.97;5057585;28;45768;-60
2021/08/10 10:34:07;;;;;;;;;3.33;3.33;;;;;24.40;51.54;101166.31;5058548;28;45455;-60
2021/08/10 10:36:34;;;;;;;;;5.33;5.00;;;;;24.40;51.64;101171.75;5059983;28;45996;-61
2021/08/10 10:39:01;;;;;;;;;4.67;4.67;;;;;24.37;51.83;101159.25;5057589;28;45410;-60
2021/08/10 10:41:32;;;;;;;;;4.00;4.00;;;;;24.41;51.40;101168.06;5059950;28;45664;-61
2021/08/10 10:43:57;;;;;;;;;4.00;4.00;;;;;24.48;51.89;101166.59;5057948;28;48428;-61
2021/08/10 10:46:26;;;;;;;;;4.00;4.00;;;;;24.55;51.59;101170.63;5059395;28;45448;-61
2021/08/10 10:48:51;;;;;;;;;4.00;4.00;;;;;24.62;50.99;101163.75;5060566;28;45394;-61
2021/08/10 10:51:23;;;;;;;;;3.33;3.33;;;;;24.68;50.48;101155.19;5060482;28;47196;-61
2021/08/10 10:53:49;;;;;;;;;3.00;3.00;;;;;24.77;50.95;101156.31;5060078;28;48500;-60
2021/08/10 10:56:30;;;;;;;;;2.33;2.00;;;;;24.85;50.11;101156.63;5055058;28;45293;-60
2021/08/10 10:59:27;;;;;;;;;3.00;3.00;;;;;24.94;49.38;101162.25;5059587;28;45314;-61
2021/08/10 11:02:16;;;;;;;;;3.00;3.00;;;;;25.07;49.58;101151.38;5057560;28;45778;-61
2021/08/10 11:05:04;;;;;;;;;2.67;2.67;;;;;25.18;49.09;101155.97;5057875;28;48144;-60
2021/08/10 11:07:36;;;;;;;;;3.00;3.00;;;;;25.27;49.28;101152.53;5059440;28;45949;-60
2021/08/10 11:10:22;;;;;;;;;4.67;4.67;;;;;25.39;49.12;101156.19;5050989;28;45426;-60
2021/08/10 11:12:48;;;;;;;;;3.67;3.67;;;;;25.44;48.73;101159.44;5044833;27;45550;-61
2021/08/10 11:15:15;;;;;;;;;3.67;3.00;;;;;25.49;48.60;101152.63;5058266;27;48088;-62
2021/08/10 11:18:07;;;;;;;;;4.00;4.00;;;;;25.60;48.61;101156.38;5055825;28;45887;-60
2021/08/10 11:20:34;;;;;;;;;4.00;4.00;;;;;25.68;48.79;101157.53;5057446;28;45416;-61
2021/08/10 11:23:21;;;;;;;;;4.00;3.00;;;;;25.76;48.42;101155.09;5054528;27;45369;-61
2021/08/10 11:25:50;;;;;;;;;4.33;3.33;;;;;25.82;47.89;101151.03;5055804;28;48614;-61
2021/08/10 11:28:24;;;;;;;;;4.00;4.00;;;;;25.90;47.74;101151.28;5058476;28;45932;-61
2021/08/10 11:30:50;;;;;;;;;5.00;4.00;;;;;25.98;47.57;101151.56;5057762;28;45582;-61